createdAt,value
2023-01-19T00:00:29.280Z,79.5
2023-01-19T00:01:35.501Z,79.5
2023-01-19T00:02:41.834Z,80
2023-01-19T00:03:48.092Z,79.5
2023-01-19T00:04:54.368Z,79.5
2023-01-19T00:06:00.577Z,80.5
2023-01-19T00:07:05.962Z,80
2023-01-19T00:08:11.227Z,79.5
2023-01-19T00:09:16.523Z,80
2023-01-19T00:10:21.831Z,80.5
2023-01-19T00:11:27.923Z,80.5
2023-01-19T00:12:34.332Z,79.5
2023-01-19T00:13:40.694Z,79
2023-01-19T00:14:46.881Z,79
2023-01-19T00:15:53.188Z,79.5
2023-01-19T00:16:59.470Z,79.5
2023-01-19T00:18:05.571Z,78.5
2023-01-19T00:19:12.023Z,78.5
2023-01-19T00:20:18.200Z,79.5
2023-01-19T00:21:24.551Z,79.5
2023-01-19T00:22:30.831Z,80
2023-01-19T00:23:37.102Z,78.5
2023-01-19T00:24:42.206Z,79.5
2023-01-19T00:25:48.653Z,79.5
2023-01-19T00:26:54.882Z,78
2023-01-19T00:28:01.192Z,78.5
2023-01-19T00:29:07.407Z,79
2023-01-19T00:30:13.752Z,79
2023-01-19T00:31:19.896Z,77.5
2023-01-19T00:32:25.266Z,78
2023-01-19T00:33:30.591Z,78.5
2023-01-19T00:34:36.925Z,78
2023-01-19T00:35:43.158Z,78
2023-01-19T00:36:49.407Z,78.5
2023-01-19T00:37:54.563Z,79
2023-01-19T00:39:00.122Z,78.5
2023-01-19T00:40:06.302Z,78
2023-01-19T00:41:12.547Z,78
2023-01-19T00:42:18.768Z,78
2023-01-19T00:43:24.942Z,78.5
2023-01-19T00:44:31.295Z,78.5
2023-01-19T00:45:37.653Z,78.5
2023-01-19T00:46:43.935Z,78.5
2023-01-19T00:47:50.303Z,79
2023-01-19T00:48:56.459Z,79
2023-01-19T00:50:02.746Z,78.5
2023-01-19T00:51:08.886Z,78.5
2023-01-19T00:52:15.287Z,78.5
2023-01-19T00:53:20.614Z,78.5
2023-01-19T00:54:26.778Z,79
2023-01-19T00:55:33.101Z,79
2023-01-19T00:56:39.421Z,79
2023-01-19T00:57:45.662Z,79
2023-01-19T00:58:51.851Z,80
2023-01-19T00:59:58.267Z,80.5
2023-01-19T01:01:04.427Z,80.5
2023-01-19T01:02:10.777Z,80
2023-01-19T01:03:16.967Z,79.5
2023-01-19T01:04:23.311Z,80
2023-01-19T01:05:29.605Z,80
2023-01-19T01:06:35.880Z,80.5
2023-01-19T01:07:41.156Z,80.5
2023-01-19T01:08:46.436Z,80.5
2023-01-19T01:09:52.720Z,81
2023-01-19T01:10:59.016Z,80.5
2023-01-19T01:12:04.135Z,80
2023-01-19T01:13:09.613Z,80
2023-01-19T01:14:15.848Z,80
2023-01-19T01:15:22.163Z,79.5
2023-01-19T01:16:28.457Z,80
2023-01-19T01:17:34.683Z,80
2023-01-19T01:18:40.959Z,80.5
2023-01-19T01:19:47.224Z,80.5
2023-01-19T01:20:53.403Z,79.5
2023-01-19T01:21:59.838Z,80
2023-01-19T01:23:06.031Z,80
2023-01-19T01:24:12.260Z,80.5
2023-01-19T01:25:18.617Z,80.5
2023-01-19T01:26:24.766Z,80.5
2023-01-19T01:27:30.129Z,80.5
2023-01-19T01:28:36.352Z,80.5
2023-01-19T01:29:42.684Z,80.5
2023-01-19T01:30:48.955Z,80
2023-01-19T01:31:55.220Z,80.5
2023-01-19T01:33:01.342Z,80
2023-01-19T01:34:07.880Z,80
2023-01-19T01:35:13.102Z,80.5
2023-01-19T01:36:18.394Z,81
2023-01-19T01:37:23.721Z,81.5
2023-01-19T01:38:28.903Z,81.5
2023-01-19T01:39:35.078Z,82
2023-01-19T01:40:41.535Z,82
2023-01-19T01:41:47.782Z,82
2023-01-19T01:42:53.891Z,82
2023-01-19T01:44:00.163Z,82
2023-01-19T01:45:06.577Z,82
2023-01-19T01:46:12.703Z,82
2023-01-19T01:47:18.977Z,82
2023-01-19T01:48:25.405Z,81.5
2023-01-19T01:49:31.650Z,81.5
2023-01-19T01:50:37.965Z,82
2023-01-19T01:51:44.142Z,82
2023-01-19T01:52:49.480Z,82
2023-01-19T01:53:55.793Z,82
2023-01-19T01:55:02.187Z,82
2023-01-19T01:56:08.371Z,82.5
2023-01-19T01:57:14.452Z,82.5
2023-01-19T01:58:20.725Z,82.5
2023-01-19T01:59:27.178Z,82.5
2023-01-19T02:00:33.349Z,83
2023-01-19T02:01:39.705Z,83
2023-01-19T02:02:45.947Z,83
2023-01-19T02:03:52.271Z,83
2023-01-19T02:04:58.356Z,83
2023-01-19T02:06:04.724Z,83
2023-01-19T02:07:10.141Z,83
2023-01-19T02:08:16.334Z,83
2023-01-19T02:09:22.470Z,83.5
2023-01-19T02:10:28.920Z,83.5
2023-01-19T02:11:35.169Z,83.5
2023-01-19T02:12:41.510Z,84
2023-01-19T02:13:47.845Z,84
2023-01-19T02:14:53.937Z,84
2023-01-19T02:16:00.272Z,84
2023-01-19T02:17:06.373Z,84
2023-01-19T02:18:12.680Z,84
2023-01-19T02:19:19.050Z,84
2023-01-19T02:20:25.268Z,84
2023-01-19T02:21:30.699Z,84
2023-01-19T02:22:36.847Z,84
2023-01-19T02:23:43.197Z,84.5
2023-01-19T02:24:49.473Z,84.5
2023-01-19T02:25:55.757Z,84.5
2023-01-19T02:27:01.985Z,84.5
2023-01-19T02:28:08.331Z,85
2023-01-19T02:29:14.632Z,85
2023-01-19T02:30:20.799Z,85
2023-01-19T02:31:26.972Z,85
2023-01-19T02:32:33.372Z,85
2023-01-19T02:33:39.638Z,85
2023-01-19T02:34:46.022Z,85
2023-01-19T02:35:51.233Z,85
2023-01-19T02:36:57.504Z,85
2023-01-19T02:38:02.624Z,85
2023-01-19T02:39:07.911Z,85
2023-01-19T02:40:14.407Z,85
2023-01-19T02:41:19.656Z,85
2023-01-19T02:42:24.978Z,85
2023-01-19T02:43:31.215Z,85
2023-01-19T02:44:37.489Z,85
2023-01-19T02:45:43.798Z,85
2023-01-19T02:46:50.038Z,85
2023-01-19T02:47:56.271Z,85
2023-01-19T02:49:02.588Z,85
2023-01-19T02:50:08.835Z,85.5
2023-01-19T02:51:15.006Z,85
2023-01-19T02:52:21.444Z,85
2023-01-19T02:53:27.672Z,85.5
2023-01-19T02:54:33.852Z,85.5
2023-01-19T02:55:40.203Z,85.5
2023-01-19T02:56:45.465Z,85.5
2023-01-19T02:57:51.791Z,85.5
2023-01-19T02:58:58.070Z,85.5
2023-01-19T03:00:04.331Z,85
2023-01-19T03:01:10.670Z,85.5
2023-01-19T03:02:16.893Z,85
2023-01-19T03:03:22.994Z,85.5
2023-01-19T03:04:29.446Z,85.5
2023-01-19T03:05:35.665Z,85.5
2023-01-19T03:06:41.895Z,85.5
2023-01-19T03:07:48.267Z,85.5
2023-01-19T03:08:54.454Z,85.5
2023-01-19T03:10:00.804Z,85.5
2023-01-19T03:11:06.166Z,85.5
2023-01-19T03:12:12.277Z,85.5
2023-01-19T03:13:18.622Z,85.5
2023-01-19T03:14:24.741Z,86
2023-01-19T03:15:30.996Z,86
2023-01-19T03:16:37.494Z,86
2023-01-19T03:17:43.542Z,85.5
2023-01-19T03:18:49.818Z,85.5
2023-01-19T03:19:56.290Z,85.5
2023-01-19T03:21:02.547Z,85.5
2023-01-19T03:22:08.690Z,86
2023-01-19T03:23:14.914Z,86
2023-01-19T03:24:21.340Z,86
2023-01-19T03:25:26.474Z,86.5
2023-01-19T03:26:32.925Z,86.5
2023-01-19T03:27:39.248Z,86.5
2023-01-19T03:28:45.451Z,86.5
2023-01-19T03:29:51.568Z,86.5
2023-01-19T03:30:56.953Z,86
2023-01-19T03:32:02.405Z,86.5
2023-01-19T03:33:08.561Z,86.5
2023-01-19T03:34:14.833Z,86.5
2023-01-19T03:35:20.198Z,87
2023-01-19T03:36:25.285Z,87
2023-01-19T03:37:31.813Z,87
2023-01-19T03:38:38.049Z,87
2023-01-19T03:39:44.219Z,87
2023-01-19T03:40:50.561Z,87
2023-01-19T03:41:56.838Z,87
2023-01-19T03:43:03.166Z,87.5
2023-01-19T03:44:09.318Z,87.5
2023-01-19T03:45:15.649Z,87.5
2023-01-19T03:46:22.027Z,87.5
2023-01-19T03:47:28.192Z,87.5
2023-01-19T03:48:34.282Z,87.5
2023-01-19T03:49:40.568Z,87.5
2023-01-19T03:50:46.048Z,87.5
2023-01-19T03:51:52.396Z,87
2023-01-19T03:52:58.581Z,87
2023-01-19T03:54:04.894Z,87
2023-01-19T03:55:11.130Z,87
2023-01-19T03:56:17.351Z,87.5
2023-01-19T03:57:23.651Z,87.5
2023-01-19T03:58:28.939Z,87
2023-01-19T03:59:34.274Z,87
2023-01-19T04:00:39.587Z,87
2023-01-19T04:01:44.836Z,87
2023-01-19T04:02:50.971Z,87
2023-01-19T04:03:57.515Z,87
2023-01-19T04:05:03.483Z,87.5
2023-01-19T04:06:09.892Z,87
2023-01-19T04:07:16.115Z,87
2023-01-19T04:08:22.416Z,87
2023-01-19T04:09:28.730Z,87
2023-01-19T04:11:41.337Z,87
2023-01-19T04:12:47.559Z,87
2023-01-19T04:13:53.846Z,86.5
2023-01-19T04:15:00.122Z,86.5
2023-01-19T04:16:05.421Z,86.5
2023-01-19T04:17:11.759Z,86.5
2023-01-19T04:18:17.957Z,86.5
2023-01-19T04:19:24.103Z,86.5
2023-01-19T04:20:30.463Z,86.5
2023-01-19T04:21:36.597Z,86.5
2023-01-19T04:22:43.014Z,86.5
2023-01-19T04:23:49.345Z,86.5
2023-01-19T04:24:54.653Z,86.5
2023-01-19T04:25:59.966Z,86.5
2023-01-19T04:27:06.018Z,86.5
2023-01-19T04:28:12.496Z,86.5
2023-01-19T04:29:18.557Z,87
2023-01-19T04:30:25.012Z,87
2023-01-19T04:31:30.252Z,87
2023-01-19T04:32:35.602Z,87
2023-01-19T04:33:41.966Z,87
2023-01-19T04:35:54.439Z,87
2023-01-19T04:37:00.538Z,87
2023-01-19T04:38:06.787Z,87
2023-01-19T04:39:13.259Z,87
2023-01-19T04:40:19.432Z,86.5
2023-01-19T04:41:25.723Z,86.5
2023-01-19T04:42:32.042Z,87
2023-01-19T04:43:38.311Z,87
2023-01-19T04:44:44.623Z,86.5
2023-01-19T04:45:50.783Z,86.5
2023-01-19T04:46:56.166Z,87
2023-01-19T04:48:02.439Z,87
2023-01-19T04:49:08.705Z,87.5
2023-01-19T04:50:14.931Z,87.5
2023-01-19T04:51:21.249Z,87.5
2023-01-19T04:52:27.468Z,88
2023-01-19T04:53:33.781Z,88
2023-01-19T04:54:40.128Z,88
2023-01-19T04:55:45.377Z,88
2023-01-19T04:56:50.660Z,88
2023-01-19T04:57:55.964Z,88
2023-01-19T04:59:01.267Z,88
2023-01-19T05:00:07.627Z,88
2023-01-19T05:01:13.755Z,88
2023-01-19T05:02:19.892Z,88
2023-01-19T05:03:26.342Z,88.5
2023-01-19T05:04:32.668Z,88.5
2023-01-19T05:05:38.845Z,88.5
2023-01-19T05:06:45.142Z,88.5
2023-01-19T05:07:51.464Z,88.5
2023-01-19T05:08:56.711Z,88.5
2023-01-19T05:10:03.005Z,88.5
2023-01-19T05:11:09.292Z,88.5
2023-01-19T05:12:15.531Z,88
2023-01-19T05:13:21.884Z,88
2023-01-19T05:14:28.103Z,87.5
2023-01-19T05:15:34.409Z,88
2023-01-19T05:16:40.640Z,88
2023-01-19T05:17:46.889Z,88.5
2023-01-19T05:18:53.181Z,88.5
2023-01-19T05:19:59.449Z,88.5
2023-01-19T05:21:05.744Z,88.5
2023-01-19T05:22:12.000Z,88.5
2023-01-19T05:23:17.285Z,88.5
2023-01-19T05:24:23.577Z,88.5
2023-01-19T05:25:29.883Z,88.5
2023-01-19T05:26:36.180Z,89
2023-01-19T05:27:42.309Z,89
2023-01-19T05:28:48.636Z,89
2023-01-19T05:29:54.938Z,88.5
2023-01-19T05:31:01.207Z,88.5
2023-01-19T05:32:07.515Z,88.5
2023-01-19T05:33:13.803Z,88.5
2023-01-19T05:34:19.991Z,88.5
2023-01-19T05:35:26.268Z,88.5
2023-01-19T05:36:32.562Z,88.5
2023-01-19T05:37:37.885Z,88.5
2023-01-19T05:38:43.971Z,88.5
2023-01-19T05:39:50.348Z,88.5
2023-01-19T05:40:56.649Z,88.5
2023-01-19T05:42:02.957Z,88.5
2023-01-19T05:43:09.257Z,88.5
2023-01-19T05:44:15.504Z,88
2023-01-19T05:45:21.714Z,88.5
2023-01-19T05:46:28.030Z,88.5
2023-01-19T05:47:34.221Z,88.5
2023-01-19T05:48:40.529Z,88.5
2023-01-19T05:49:46.886Z,88.5
2023-01-19T05:50:53.167Z,87.5
2023-01-19T05:51:58.421Z,88
2023-01-19T05:53:04.754Z,88
2023-01-19T05:54:10.971Z,88.5
2023-01-19T05:55:17.292Z,88.5
2023-01-19T05:56:23.354Z,88
2023-01-19T05:57:29.623Z,88
2023-01-19T05:58:36.083Z,88
2023-01-19T05:59:42.239Z,88
2023-01-19T06:00:48.664Z,88
2023-01-19T06:01:54.756Z,88
2023-01-19T06:03:01.191Z,88
2023-01-19T06:04:07.520Z,88.5
2023-01-19T06:05:13.685Z,88.5
2023-01-19T06:07:25.247Z,88
2023-01-19T06:08:31.561Z,88
2023-01-19T06:09:37.895Z,88
2023-01-19T06:10:44.080Z,88
2023-01-19T06:11:50.197Z,88
2023-01-19T06:12:56.612Z,88.5
2023-01-19T06:14:02.908Z,88.5
2023-01-19T06:15:09.189Z,88.5
2023-01-19T06:16:15.471Z,88.5
2023-01-19T06:17:21.639Z,88.5
2023-01-19T06:18:27.828Z,88.5
2023-01-19T06:19:34.298Z,88.5
2023-01-19T06:20:39.613Z,88.5
2023-01-19T06:21:45.894Z,88.5
2023-01-19T06:22:52.064Z,88.5
2023-01-19T06:23:58.357Z,88
2023-01-19T06:25:04.685Z,88
2023-01-19T06:26:09.784Z,88
2023-01-19T06:27:15.086Z,88
2023-01-19T06:28:21.532Z,88.5
2023-01-19T06:29:27.628Z,88.5
2023-01-19T06:30:33.098Z,88
2023-01-19T06:31:38.478Z,88
2023-01-19T06:32:44.493Z,88
2023-01-19T06:33:50.927Z,88
2023-01-19T06:34:57.245Z,88
2023-01-19T06:36:03.524Z,87.5
2023-01-19T06:37:09.762Z,87.5
2023-01-19T06:38:16.017Z,87.5
2023-01-19T06:39:22.311Z,87.5
2023-01-19T06:40:28.508Z,87.5
2023-01-19T06:41:34.853Z,88
2023-01-19T06:42:41.105Z,88
2023-01-19T06:43:47.438Z,88
2023-01-19T06:44:53.608Z,88
2023-01-19T06:45:58.919Z,88
2023-01-19T06:47:05.218Z,88
2023-01-19T06:48:11.512Z,88
2023-01-19T06:49:17.774Z,87.5
2023-01-19T06:50:24.042Z,87.5
2023-01-19T06:51:30.310Z,87.5
2023-01-19T06:52:36.565Z,87.5
2023-01-19T06:53:41.905Z,87.5
2023-01-19T06:54:47.205Z,87.5
2023-01-19T06:56:59.643Z,87.5
2023-01-19T06:58:05.953Z,87.5
2023-01-19T06:59:12.284Z,87.5
2023-01-19T07:00:17.620Z,87.5
2023-01-19T07:01:22.893Z,87.5
2023-01-19T07:02:29.137Z,87.5
2023-01-19T07:03:35.319Z,87.5
2023-01-19T07:04:41.699Z,87.5
2023-01-19T07:05:47.784Z,87.5
2023-01-19T07:06:54.191Z,88
2023-01-19T07:08:00.531Z,88
2023-01-19T07:09:06.777Z,87.5
2023-01-19T07:10:13.169Z,88
2023-01-19T07:11:19.311Z,88
2023-01-19T07:12:25.640Z,87.5
2023-01-19T07:13:31.759Z,87.5
2023-01-19T07:14:38.135Z,87.5
2023-01-19T07:15:43.254Z,87.5
2023-01-19T07:16:49.536Z,87.5
2023-01-19T07:17:55.895Z,87.5
2023-01-19T07:19:02.275Z,87.5
2023-01-19T07:20:08.487Z,87.5
2023-01-19T07:21:14.628Z,87.5
2023-01-19T07:22:21.071Z,87.5
2023-01-19T07:23:27.344Z,87.5
2023-01-19T07:24:33.577Z,87
2023-01-19T07:25:39.886Z,87.5
2023-01-19T07:26:46.185Z,87.5
2023-01-19T07:27:52.552Z,87.5
2023-01-19T07:28:58.714Z,87.5
2023-01-19T07:30:03.961Z,87.5
2023-01-19T07:31:10.329Z,88
2023-01-19T07:32:16.590Z,88
2023-01-19T07:33:22.810Z,87.5
2023-01-19T07:34:29.099Z,87.5
2023-01-19T07:35:35.317Z,87.5
2023-01-19T07:36:41.521Z,87.5
2023-01-19T07:37:47.835Z,88
2023-01-19T07:38:54.093Z,88
2023-01-19T07:40:00.489Z,88
2023-01-19T07:41:06.570Z,88.5
2023-01-19T07:42:12.838Z,88.5
2023-01-19T07:43:19.146Z,89
2023-01-19T07:44:24.574Z,89
2023-01-19T07:45:30.773Z,89
2023-01-19T07:46:37.115Z,89
2023-01-19T07:47:43.321Z,89
2023-01-19T07:48:48.684Z,89
2023-01-19T07:49:53.960Z,89
2023-01-19T07:51:00.175Z,89
2023-01-19T07:52:06.407Z,89
2023-01-19T07:53:11.803Z,89
2023-01-19T07:54:17.070Z,89
2023-01-19T07:55:23.341Z,89
2023-01-19T07:56:29.644Z,89
2023-01-19T07:57:35.962Z,89
2023-01-19T07:58:42.031Z,89
2023-01-19T07:59:48.555Z,89
2023-01-19T08:00:54.716Z,89
2023-01-19T08:03:07.136Z,89
2023-01-19T08:04:13.612Z,89
2023-01-19T08:05:19.871Z,89
2023-01-19T08:06:25.987Z,89
2023-01-19T08:07:32.225Z,89
2023-01-19T08:08:37.612Z,89
2023-01-19T08:09:43.772Z,88.5
2023-01-19T08:10:50.143Z,88.5
2023-01-19T08:11:56.383Z,89
2023-01-19T08:13:02.746Z,89
2023-01-19T08:14:08.878Z,89
2023-01-19T08:15:15.154Z,88.5
2023-01-19T08:16:21.439Z,88.5
2023-01-19T08:17:27.695Z,89
2023-01-19T08:18:33.972Z,89
2023-01-19T08:19:40.277Z,89
2023-01-19T08:20:46.514Z,89
2023-01-19T08:21:52.784Z,88.5
2023-01-19T08:22:58.095Z,88.5
2023-01-19T08:24:04.346Z,88.5
2023-01-19T08:25:10.631Z,88.5
2023-01-19T08:26:16.890Z,88.5
2023-01-19T08:27:23.203Z,88
2023-01-19T08:28:29.443Z,88
2023-01-19T08:29:35.716Z,88
2023-01-19T08:30:41.990Z,88
2023-01-19T08:31:48.308Z,88
2023-01-19T08:32:54.612Z,88
2023-01-19T08:34:00.939Z,87.5
2023-01-19T08:35:07.110Z,87.5
2023-01-19T08:36:13.356Z,86.5
2023-01-19T08:37:18.644Z,86.5
2023-01-19T08:38:24.967Z,86
2023-01-19T08:39:31.284Z,85.5
2023-01-19T08:40:37.463Z,85.5
2023-01-19T08:41:43.735Z,85.5
2023-01-19T08:42:50.097Z,85.5
2023-01-19T08:43:56.294Z,86
2023-01-19T08:45:02.562Z,85.5
2023-01-19T08:46:08.837Z,85
2023-01-19T08:47:15.155Z,85
2023-01-19T08:48:21.376Z,85.5
2023-01-19T08:49:27.649Z,85.5
2023-01-19T08:50:32.942Z,85
2023-01-19T08:51:39.222Z,85
2023-01-19T08:52:45.490Z,85
2023-01-19T08:53:51.894Z,85
2023-01-19T08:54:58.029Z,84.5
2023-01-19T08:56:04.367Z,84.5
2023-01-19T08:57:10.585Z,85
2023-01-19T08:58:17.002Z,85
2023-01-19T08:59:23.229Z,84.5
2023-01-19T09:00:29.576Z,83.5
2023-01-19T09:01:35.814Z,84
2023-01-19T09:02:42.083Z,84
2023-01-19T09:03:48.466Z,83.5
2023-01-19T09:04:53.731Z,84
2023-01-19T09:05:59.932Z,84.5
2023-01-19T09:07:06.284Z,84.5
2023-01-19T09:09:18.788Z,84
2023-01-19T09:10:24.920Z,84
2023-01-19T09:11:31.350Z,83.5
2023-01-19T09:12:37.533Z,83.5
2023-01-19T09:13:43.744Z,83.5
2023-01-19T09:14:50.049Z,84
2023-01-19T09:15:56.240Z,83
2023-01-19T09:17:02.512Z,82.5
2023-01-19T09:18:08.784Z,82.5
2023-01-19T09:19:14.081Z,82.5
2023-01-19T09:20:20.346Z,83
2023-01-19T09:21:26.654Z,82.5
2023-01-19T09:22:32.909Z,83
2023-01-19T09:23:39.180Z,83
2023-01-19T09:24:45.452Z,83
2023-01-19T09:25:51.713Z,83
2023-01-19T09:26:57.987Z,82.5
2023-01-19T09:28:04.270Z,83
2023-01-19T09:29:10.535Z,82.5
2023-01-19T09:30:16.805Z,83
2023-01-19T09:31:23.090Z,83
2023-01-19T09:32:29.399Z,82
2023-01-19T09:33:34.641Z,81.5
2023-01-19T09:34:40.914Z,82
2023-01-19T09:35:47.201Z,82
2023-01-19T09:36:53.469Z,82.5
2023-01-19T09:37:59.875Z,82.5
2023-01-19T09:39:06.041Z,82
2023-01-19T09:40:12.280Z,82
2023-01-19T09:41:18.576Z,82
2023-01-19T09:42:24.818Z,82
2023-01-19T09:43:31.093Z,82
2023-01-19T09:44:37.371Z,81.5
2023-01-19T09:45:43.645Z,82
2023-01-19T09:46:49.944Z,82
2023-01-19T09:47:55.197Z,82
2023-01-19T09:49:01.589Z,82
2023-01-19T09:50:07.749Z,81.5
2023-01-19T09:51:14.021Z,81
2023-01-19T09:52:20.300Z,80.5
2023-01-19T09:53:26.563Z,81
2023-01-19T09:54:31.871Z,80.5
2023-01-19T09:55:37.149Z,80.5
2023-01-19T09:56:43.446Z,80.5
2023-01-19T09:57:48.784Z,79.5
2023-01-19T09:58:54.028Z,79.5
2023-01-19T10:00:00.350Z,80
2023-01-19T10:01:06.619Z,80.5
2023-01-19T10:02:12.840Z,80
2023-01-19T10:03:19.113Z,80
2023-01-19T10:04:25.383Z,80.5
2023-01-19T10:05:31.654Z,80.5
2023-01-19T10:06:37.930Z,81
2023-01-19T10:07:44.197Z,81
2023-01-19T10:08:50.470Z,80.5
2023-01-19T10:09:56.747Z,80.5
2023-01-19T10:11:03.010Z,81
2023-01-19T10:12:09.294Z,81
2023-01-19T10:13:14.676Z,81
2023-01-19T10:14:20.853Z,80.5
2023-01-19T10:15:27.113Z,80.5
2023-01-19T10:16:33.387Z,80.5
2023-01-19T10:17:39.665Z,80.5
2023-01-19T10:18:45.938Z,81
2023-01-19T10:19:52.279Z,80.5
2023-01-19T10:20:58.496Z,79.5
2023-01-19T10:22:04.757Z,79.5
2023-01-19T10:23:11.029Z,80.5
2023-01-19T10:24:17.309Z,81
2023-01-19T10:25:23.579Z,79.5
2023-01-19T10:26:29.925Z,80.5
2023-01-19T10:27:35.157Z,81
2023-01-19T10:28:41.405Z,81
2023-01-19T10:29:47.713Z,80.5
2023-01-19T10:30:53.955Z,80
2023-01-19T10:32:00.238Z,80
2023-01-19T10:33:05.562Z,80.5
2023-01-19T10:34:10.816Z,79.5
2023-01-19T10:35:17.095Z,80
2023-01-19T10:36:23.359Z,80.5
2023-01-19T10:37:29.629Z,81.5
2023-01-19T10:38:34.929Z,80.5
2023-01-19T10:39:40.246Z,81
2023-01-19T10:40:46.496Z,80
2023-01-19T10:41:52.767Z,80.5
2023-01-19T10:42:59.185Z,80
2023-01-19T10:44:05.311Z,80.5
2023-01-19T10:45:11.585Z,80
2023-01-19T10:46:17.856Z,80
2023-01-19T10:47:24.132Z,80.5
2023-01-19T10:48:30.412Z,80.5
2023-01-19T10:49:36.674Z,80.5
2023-01-19T10:50:42.967Z,80.5
2023-01-19T10:51:49.235Z,81
2023-01-19T10:52:55.661Z,81.5
2023-01-19T10:54:01.768Z,81
2023-01-19T10:55:07.076Z,80.5
2023-01-19T10:56:13.367Z,80
2023-01-19T10:57:19.614Z,80.5
2023-01-19T10:58:25.876Z,80
2023-01-19T10:59:32.221Z,80
2023-01-19T11:00:38.435Z,79.5
2023-01-19T11:01:43.725Z,80
2023-01-19T11:02:49.024Z,79.5
2023-01-19T11:03:55.292Z,79.5
2023-01-19T11:05:01.575Z,78
2023-01-19T11:06:07.908Z,78.5
2023-01-19T11:07:13.123Z,78
2023-01-19T11:08:18.460Z,78.5
2023-01-19T11:09:24.755Z,78.5
2023-01-19T11:10:30.990Z,78.5
2023-01-19T11:11:37.233Z,77
2023-01-19T11:12:43.493Z,77.5
2023-01-19T11:13:49.773Z,77.5
2023-01-19T11:14:56.072Z,78.5
2023-01-19T11:16:02.319Z,78
2023-01-19T11:17:08.590Z,79
2023-01-19T11:18:14.863Z,77.5
2023-01-19T11:19:21.129Z,77.5
2023-01-19T11:20:27.445Z,78.5
2023-01-19T11:21:33.686Z,78.5
2023-01-19T11:22:38.999Z,76.5
2023-01-19T11:23:45.260Z,77
2023-01-19T11:24:51.528Z,76
2023-01-19T11:25:57.796Z,76.5
2023-01-19T11:27:04.123Z,77.5
2023-01-19T11:28:10.332Z,77
2023-01-19T11:29:16.604Z,77.5
2023-01-19T11:30:21.924Z,76.5
2023-01-19T11:31:27.199Z,76.5
2023-01-19T11:32:32.499Z,76.5
2023-01-19T11:33:37.819Z,76.5
2023-01-19T11:34:44.055Z,76.5
2023-01-19T11:35:50.429Z,76.5
2023-01-19T11:36:56.603Z,76.5
2023-01-19T11:38:02.891Z,77
2023-01-19T11:39:09.146Z,76
2023-01-19T11:40:15.484Z,76.5
2023-01-19T11:41:21.800Z,76.5
2023-01-19T11:42:27.985Z,75
2023-01-19T11:43:34.236Z,74.5
2023-01-19T11:44:40.508Z,75.5
2023-01-19T11:45:46.778Z,76.5
2023-01-19T11:46:53.057Z,76.5
2023-01-19T11:47:58.598Z,75
2023-01-19T11:49:04.620Z,75.5
2023-01-19T11:50:10.887Z,76
2023-01-19T11:51:17.284Z,74.5
2023-01-19T11:52:23.439Z,73.5
2023-01-19T11:54:35.985Z,75
2023-01-19T11:55:42.284Z,74
2023-01-19T11:56:48.520Z,73.5
2023-01-19T11:57:54.805Z,73
2023-01-19T11:59:01.075Z,74
2023-01-19T12:00:07.386Z,74.5
2023-01-19T12:01:13.603Z,73.5
2023-01-19T12:02:18.897Z,73.5
2023-01-19T12:03:25.172Z,73
2023-01-19T12:04:31.495Z,74
2023-01-19T12:05:37.748Z,73.5
2023-01-19T12:06:43.984Z,73.5
2023-01-19T12:07:50.326Z,74
2023-01-19T12:08:56.641Z,73
2023-01-19T12:10:02.820Z,74
2023-01-19T12:11:09.073Z,73.5
2023-01-19T12:12:15.351Z,72.5
2023-01-19T12:13:21.629Z,73
2023-01-19T12:14:27.897Z,73.5
2023-01-19T12:15:34.184Z,72
2023-01-19T12:16:39.479Z,73.5
2023-01-19T12:17:44.766Z,72.5
2023-01-19T12:18:51.065Z,73
2023-01-19T12:19:57.306Z,73.5
2023-01-19T12:21:03.565Z,72.5
2023-01-19T12:22:09.847Z,74
2023-01-19T12:23:16.109Z,73
2023-01-19T12:24:22.384Z,73.5
2023-01-19T12:25:28.664Z,72.5
2023-01-19T12:26:33.954Z,73
2023-01-19T12:27:39.239Z,72
2023-01-19T12:28:45.511Z,72.5
2023-01-19T12:29:51.793Z,72
2023-01-19T12:30:58.084Z,74
2023-01-19T12:32:03.349Z,74.5
2023-01-19T12:33:09.628Z,73
2023-01-19T12:34:15.925Z,72.5
2023-01-19T12:35:22.179Z,72.5
2023-01-19T12:36:28.443Z,72
2023-01-19T12:37:34.726Z,72
2023-01-19T12:38:40.997Z,72
2023-01-19T12:39:47.264Z,73.5
2023-01-19T12:40:53.532Z,73.5
2023-01-19T12:41:59.808Z,73.5
2023-01-19T12:43:06.077Z,72.5
2023-01-19T12:44:12.349Z,74
2023-01-19T12:45:18.621Z,74.5
2023-01-19T12:46:23.936Z,73.5
2023-01-19T12:47:30.237Z,73
2023-01-19T12:48:36.461Z,74
2023-01-19T12:49:42.723Z,74
2023-01-19T12:50:49.003Z,74
2023-01-19T12:51:55.270Z,72.5
2023-01-19T12:53:01.552Z,72.5
2023-01-19T12:54:07.972Z,73
2023-01-19T12:55:14.090Z,74
2023-01-19T12:56:20.361Z,74
2023-01-19T12:57:26.635Z,74
2023-01-19T12:58:32.934Z,73.5
2023-01-19T12:59:39.172Z,74
2023-01-19T13:00:44.465Z,74.5
2023-01-19T13:01:50.740Z,75
2023-01-19T13:02:57.012Z,74.5
2023-01-19T13:04:03.291Z,74
2023-01-19T13:05:09.547Z,73
2023-01-19T13:06:15.824Z,73.5
2023-01-19T13:07:22.098Z,73.5
2023-01-19T13:08:28.381Z,74.5
2023-01-19T13:09:34.645Z,74
2023-01-19T13:10:40.920Z,74.5
2023-01-19T13:11:47.190Z,75.5
2023-01-19T13:12:53.453Z,76
2023-01-19T13:13:59.754Z,75
2023-01-19T13:15:05.020Z,74.5
2023-01-19T13:16:11.323Z,75.5
2023-01-19T13:17:17.565Z,75.5
2023-01-19T13:18:23.850Z,74
2023-01-19T13:19:30.108Z,75
2023-01-19T13:20:36.377Z,75.5
2023-01-19T13:21:42.674Z,75
2023-01-19T13:22:48.928Z,76
2023-01-19T13:23:55.195Z,76.5
2023-01-19T13:25:01.483Z,75.5
2023-01-19T13:26:07.759Z,76
2023-01-19T13:27:14.027Z,76.5
2023-01-19T13:28:20.293Z,75
2023-01-19T13:29:25.576Z,75.5
2023-01-19T13:30:30.912Z,75.5
2023-01-19T13:31:36.173Z,75.5
2023-01-19T13:32:42.440Z,76.5
2023-01-19T13:33:48.712Z,75.5
2023-01-19T13:34:54.996Z,76.5
2023-01-19T13:36:01.255Z,77
2023-01-19T13:37:07.542Z,75.5
2023-01-19T13:38:13.805Z,76.5
2023-01-19T13:39:20.079Z,76
2023-01-19T13:40:26.359Z,76
2023-01-19T13:41:32.614Z,76
2023-01-19T13:42:38.884Z,76
2023-01-19T13:43:44.219Z,76.5
2023-01-19T13:44:49.469Z,76.5
2023-01-19T13:45:55.744Z,76
2023-01-19T13:47:02.024Z,76.5
2023-01-19T13:48:08.457Z,78
2023-01-19T13:49:14.579Z,77
2023-01-19T13:50:20.836Z,76.5
2023-01-19T13:51:27.112Z,77.5
2023-01-19T13:52:33.385Z,76
2023-01-19T13:53:39.650Z,76.5
2023-01-19T13:54:45.942Z,76.5
2023-01-19T13:55:52.196Z,77
2023-01-19T13:56:58.471Z,76.5
2023-01-19T13:58:04.749Z,77.5
2023-01-19T13:59:10.039Z,77.5
2023-01-19T14:00:16.313Z,77.5
2023-01-19T14:01:22.588Z,77
2023-01-19T14:02:28.895Z,76
2023-01-19T14:03:35.123Z,74.5
2023-01-19T14:04:41.396Z,74.5
2023-01-19T14:05:47.774Z,75
2023-01-19T14:06:52.967Z,75
2023-01-19T14:07:58.259Z,75.5
2023-01-19T14:09:04.532Z,75.5
2023-01-19T14:10:10.802Z,76
2023-01-19T14:11:17.077Z,75.5
2023-01-19T14:12:23.353Z,76
2023-01-19T14:13:28.642Z,75.5
2023-01-19T14:14:33.937Z,76
2023-01-19T14:15:40.205Z,75.5
2023-01-19T14:16:46.476Z,77
2023-01-19T14:17:52.749Z,76.5
2023-01-19T14:18:59.019Z,76.5
2023-01-19T14:20:05.308Z,75.5
2023-01-19T14:21:11.572Z,75.5
2023-01-19T14:22:17.864Z,76
2023-01-19T14:23:24.111Z,75
2023-01-19T14:24:30.400Z,76.5
2023-01-19T14:25:36.661Z,77.5
2023-01-19T14:26:42.930Z,77
2023-01-19T14:27:49.211Z,76.5
2023-01-19T14:28:54.490Z,76
2023-01-19T14:30:00.815Z,76.5
2023-01-19T14:31:07.040Z,76
2023-01-19T14:32:13.302Z,76.5
2023-01-19T14:33:19.584Z,77.5
2023-01-19T14:34:25.857Z,77.5
2023-01-19T14:35:32.147Z,76.5
2023-01-19T14:36:38.407Z,75
2023-01-19T14:37:44.656Z,76
2023-01-19T14:38:50.945Z,75.5
2023-01-19T14:39:57.262Z,75.5
2023-01-19T14:41:03.537Z,75.5
2023-01-19T14:42:09.754Z,75.5
2023-01-19T14:43:15.064Z,76
2023-01-19T14:44:21.321Z,76
2023-01-19T14:45:27.625Z,75.5
2023-01-19T14:46:32.908Z,75.5
2023-01-19T14:47:38.181Z,75.5
2023-01-19T14:48:44.473Z,76
2023-01-19T14:49:50.792Z,77
2023-01-19T14:50:57.012Z,76
2023-01-19T14:52:02.408Z,76
2023-01-19T14:53:07.599Z,75.5
2023-01-19T14:54:13.862Z,75.5
2023-01-19T14:55:20.144Z,76
2023-01-19T14:56:26.435Z,76.5
2023-01-19T14:57:32.681Z,77
2023-01-19T14:58:38.949Z,76
2023-01-19T14:59:45.219Z,75
2023-01-19T15:00:51.496Z,75.5
2023-01-19T15:01:57.771Z,75.5
2023-01-19T15:03:04.068Z,75.5
2023-01-19T15:04:10.318Z,76.5
2023-01-19T15:05:16.597Z,77
2023-01-19T15:06:22.863Z,77
2023-01-19T15:07:28.144Z,75.5
2023-01-19T15:08:34.425Z,75.5
2023-01-19T15:09:40.698Z,76.5
2023-01-19T15:10:46.963Z,75
2023-01-19T15:11:53.270Z,74.5
2023-01-19T15:12:59.509Z,75
2023-01-19T15:14:05.785Z,75
2023-01-19T15:15:12.055Z,75
2023-01-19T15:16:18.332Z,75.5